• Join FlightAware (Why Join?)
  • Login
  • US Flag 
04:56PM EDT


 

Airport Tracker/Info


-or-


 

Live Flight TrackerFlight Track Log ✈ QFA540 ✈ 09-May-2013 ✈ YSSY / SYD - YBBN / BNE

Flight Track Log - Related Links

Times and Time Zones

All times are in EDT time to prevent confusion due to time zone crossing. See the QFA540 flight status page for this flight to view local times or setup timezone preferences in your user account.

Time Position Orientation Groundspeed Altitude Reporting Facility
EDT Latitude Longitude Course Direction KTS MPH feet Rate Location/Type
03:21AM -33.9351 151.1852 36° Northeast 157 181 1,200  Level Aus ATC (RADAR)
03:22AM -33.8964 151.2184 36° Northeast 220 253 2,900 2,220 Climbing Aus ATC (RADAR)
03:23AM -33.8750 151.2380 37° Northeast 231 266 4,000 1,800 Climbing Aus ATC (RADAR)
03:23AM -33.8384 151.2702 36° Northeast 282 325 4,700 1,740 Climbing Aus ATC (RADAR)
03:24AM -33.7855 151.3947 63° Northeast 349 402 7,200 2,340 Climbing Aus ATC (RADAR)
03:25AM -33.7610 151.4324 52° Northeast 348 400 8,600 2,760 Climbing Aus ATC (RADAR)
03:25AM -33.7222 151.4847 48° Northeast 365 420 10,000 2,520 Climbing Aus ATC (RADAR)
03:26AM -33.6566 151.5155 21° North 380 437 11,800 2,700 Climbing Aus ATC (RADAR)
03:27AM -33.5960 151.5384 17° North 386 444 13,400 2,580 Climbing Aus ATC (RADAR)
03:28AM -33.5067 151.5729 18° North 402 463 15,500 2,640 Climbing Aus ATC (RADAR)
03:28AM -33.4615 151.5904 18° North 405 466 16,700 2,460 Climbing Aus ATC (RADAR)
03:29AM -33.3510 151.6322 18° North 415 478 19,000 2,160 Climbing Aus ATC (RADAR)
03:29AM -33.3071 151.6492 18° North 425 489 19,800 1,980 Climbing Aus ATC (RADAR)
03:30AM -33.2498 151.6706 17° North 432 497 20,800 1,920 Climbing Aus ATC (RADAR)
03:30AM -33.1789 151.6973 17° North 435 501 21,900 1,800 Climbing Aus ATC (RADAR)
03:31AM -33.0897 151.7305 17° North 445 512 23,300 1,800 Climbing Aus ATC (RADAR)
03:32AM -33.0191 151.7569 17° North 450 518 24,300 1,560 Climbing Aus ATC (RADAR)
03:33AM -32.9273 151.7911 17° North 460 529 25,400 1,500 Climbing Aus ATC (RADAR)
03:33AM -32.8761 151.8105 18° North 465 535 26,100 1,800 Climbing Aus ATC (RADAR)
03:34AM -32.8032 151.8375 17° North 467 537 27,200 1,980 Climbing Aus ATC (RADAR)
03:35AM -32.6820 151.8827 17° North 449 517 29,300 1,860 Climbing Aus ATC (RADAR)
03:35AM -32.6417 151.8976 17° North 449 517 29,700 1,800 Climbing Aus ATC (RADAR)
03:35AM -32.5735 151.9227 17° North 435 501 31,000 1,140 Climbing Aus ATC (RADAR)
03:36AM -32.4776 151.9594 18° North 455 524 31,300 240 Climbing Aus ATC (RADAR)
03:37AM -32.4000 151.9864 16° North 470 541 31,400 60 Climbing Aus ATC (RADAR)
03:38AM -32.3076 152.0210 18° North 463 533 31,400  Level Aus ATC (RADAR)
03:38AM -32.2559 152.0397 17° North 462 532 31,400  Level Aus ATC (RADAR)
03:39AM -32.1778 152.0693 18° North 464 534 31,400  Level Aus ATC (RADAR)
03:40AM -32.0297 152.1238 17° North 465 535 31,400  Level Aus ATC (RADAR)
03:40AM -31.9891 152.1392 18° North 462 532 31,400  Level Aus ATC (RADAR)
03:41AM -31.9177 152.1654 17° North 458 527 31,400  Level Aus ATC (RADAR)
03:42AM -31.8154 152.2025 17° North 458 527 31,400  Level Aus ATC (RADAR)
03:42AM -31.7439 152.2292 18° North 460 529 31,400  Level Aus ATC (RADAR)
03:43AM -31.6460 152.2652 17° North 458 527 31,400  Level Aus ATC (RADAR)
03:43AM -31.5907 152.2855 17° North 463 533 31,400  Level Aus ATC (RADAR)
03:44AM -31.4898 152.3225 17° North 456 525 31,400  Level Aus ATC (RADAR)
03:45AM -31.4187 152.3486 17° North 458 527 31,400  Level Aus ATC (RADAR)
03:45AM -31.3886 152.3598 18° North 456 525 31,400  Level Aus ATC (RADAR)
03:46AM -31.3077 152.3888 17° North 456 525 31,400  Level Aus ATC (RADAR)
03:47AM -31.2068 152.4252 17° North 455 524 31,400  Level Aus ATC (RADAR)
03:47AM -31.1366 152.4508 17° North 453 521 31,400  Level Aus ATC (RADAR)
03:48AM -31.0293 152.4893 17° North 450 518 31,400  Level Aus ATC (RADAR)
03:48AM -30.9992 152.5003 18° North 451 519 31,400  Level Aus ATC (RADAR)
03:49AM -30.9260 152.5264 17° North 452 520 31,400  Level Aus ATC (RADAR)
03:50AM -30.7849 152.5766 17° North 456 525 31,400  Level Aus ATC (RADAR)
03:50AM -30.7548 152.5880 18° North 456 525 31,400  Level Aus ATC (RADAR)
03:51AM -30.6771 152.6167 18° North 452 520 31,400  Level Aus ATC (RADAR)
03:52AM -30.5837 152.6520 18° North 456 525 31,400  Level Aus ATC (RADAR)
03:52AM -30.5135 152.6774 17° North 453 521 31,400  Level Aus ATC (RADAR)
03:53AM -30.4268 152.7089 17° North 436 502 31,400  Level Aus ATC (RADAR)
03:53AM -30.3803 152.7260 18° North 425 489 31,400  Level Aus ATC (RADAR)
03:54AM -30.3251 152.7467 18° North 419 482 31,400  Level Aus ATC (RADAR)
03:55AM -30.2042 152.7894 17° North 420 483 31,400  Level Aus ATC (RADAR)
03:55AM -30.1579 152.8068 18° North 421 484 31,400  Level Aus ATC (RADAR)
03:56AM -30.0853 152.8313 16° North 417 480 31,400  Level Aus ATC (RADAR)
03:57AM -29.9996 152.8624 17° North 422 486 31,400  Level Aus ATC (RADAR)
03:57AM -29.9347 152.8858 17° North 420 483 31,400  Level Aus ATC (RADAR)
03:58AM -29.8725 152.9076 17° North 414 476 31,400  Level Aus ATC (RADAR)
03:59AM -29.8044 152.9323 17° North 421 484 31,400  Level Aus ATC (RADAR)
04:00AM -29.7053 152.9670 17° North 415 478 31,400  Level Aus ATC (RADAR)
04:00AM -29.6373 152.9915 17° North 419 482 31,400  Level Aus ATC (RADAR)
04:01AM -29.5915 153.0090 18° North 418 481 31,400  Level Aus ATC (RADAR)
04:01AM -29.5294 153.0293 16° North 413 475 31,400  Level Aus ATC (RADAR)
04:02AM -29.4439 153.0598 17° North 413 475 31,400  Level Aus ATC (RADAR)
04:03AM -29.3734 153.0838 17° North 409 471 31,400  Level Aus ATC (RADAR)
04:03AM -29.3183 153.1027 17° North 409 471 31,400  Level Aus ATC (RADAR)
04:04AM -29.2448 153.1272 16° North 408 470 31,400  Level Aus ATC (RADAR)
04:04AM -29.1811 153.1496 17° North 407 468 31,400  Level Aus ATC (RADAR)
04:05AM -29.0830 153.1877 19° North 402 463 31,400  Level Aus ATC (RADAR)
04:06AM -29.0341 153.2042 16° North 409 471 31,400  Level Aus ATC (RADAR)
04:06AM -28.9706 153.2267 17° North 410 472 31,400  Level Aus ATC (RADAR)
04:07AM -28.8888 153.2554 17° North 410 472 31,400  Level Aus ATC (RADAR)
04:08AM -28.8185 153.2784 16° North 410 472 31,400  Level Aus ATC (RADAR)
04:08AM -28.7247 153.3128 18° North 412 474 31,400  Level Aus ATC (RADAR)
04:09AM -28.6791 153.3288 17° North 412 474 31,400  Level Aus ATC (RADAR)
04:09AM -28.6154 153.3515 17° North 412 474 31,400  Level Aus ATC (RADAR)
04:10AM -28.5152 153.3858 17° North 411 473 31,400 -540 Level Aus ATC (RADAR)
04:11AM -28.4696 153.4008 16° North 411 473 30,700 -1,800 Descending Aus ATC (RADAR)
04:11AM -28.4061 153.4232 17° North 411 473 29,600 -2,040 Descending Aus ATC (RADAR)
04:12AM -28.3342 153.4482 17° North 406 467 28,200 -2,040 Descending Aus ATC (RADAR)
04:13AM -28.2730 153.4702 18° North 394 453 27,100 -1,800 Descending Aus ATC (RADAR)
04:13AM -28.1963 153.4955 16° North 381 438 25,800 -1,560 Descending Aus ATC (RADAR)
04:14AM -28.1467 153.5147 19° North 374 430 25,200 -1,020 Descending Aus ATC (RADAR)
04:14AM -28.1118 153.5687 54° Northeast 370 426 24,700 -1,020 Descending Aus ATC (RADAR)
04:16AM -28.1675 153.6789 120° Southeast 365 420 23,500 -1,020 Descending Aus ATC (RADAR)
04:16AM -28.2097 153.6808 178° South 361 415 23,100 -1,020 Descending Aus ATC (RADAR)
04:17AM -28.2642 153.6589 199° South 356 410 22,500 -1,080 Descending Aus ATC (RADAR)
04:17AM -28.3256 153.6364 198° South 347 399 21,800 -960 Descending Aus ATC (RADAR)
04:18AM -28.3651 153.5945 223° Southwest 340 391 21,300 -300 Descending Aus ATC (RADAR)
04:19AM -28.3622 153.5093 272° West 326 375 21,400 60 Climbing Aus ATC (RADAR)
04:19AM -28.3367 153.4763 311° West 326 375 21,400  Level Aus ATC (RADAR)
04:20AM -28.2835 153.4621 347° North 333 383 21,400  Level Aus ATC (RADAR)
04:21AM -28.1839 153.4989 18° North 349 402 21,400  Level Aus ATC (RADAR)
04:21AM -28.1475 153.5148 21° North 340 391 21,400  Level Aus ATC (RADAR)
04:22AM -28.1194 153.5690 60° Northeast 347 399 21,400  Level Aus ATC (RADAR)
04:23AM -28.1516 153.6427 116° Southeast 354 407 21,400  Level Aus ATC (RADAR)
04:23AM -28.2158 153.6483 176° South 348 400 21,400  Level Aus ATC (RADAR)
04:24AM -28.2830 153.6196 201° Southwest 344 396 21,400  Level Aus ATC (RADAR)
04:24AM -28.3119 153.5786 231° Southwest 338 389 21,400  Level Aus ATC (RADAR)
04:25AM -28.2738 153.4914 296° West 325 374 21,400  Level Aus ATC (RADAR)
04:26AM -28.2343 153.4861 353° North 339 390 21,400  Level Aus ATC (RADAR)
04:26AM -28.1956 153.4986 16° North 344 396 21,400 -720 Level Aus ATC (RADAR)
04:27AM -28.1402 153.5024 North 346 398 20,700 -1,200 Descending Aus ATC (RADAR)
04:28AM -28.0646 153.4878 350° North 331 381 19,800 -1,020 Descending Aus ATC (RADAR)
04:28AM -28.0124 153.4787 351° North 326 375 19,300 -1,020 Descending Aus ATC (RADAR)
04:29AM -27.9451 153.4669 351° North 325 374 18,500 -1,080 Descending Aus ATC (RADAR)
04:29AM -27.9080 153.4607 352° North 325 374 18,100 -1,500 Descending Aus ATC (RADAR)
04:30AM -27.8212 153.4450 351° North 315 362 16,400 -1,680 Descending Aus ATC (RADAR)
04:31AM -27.7788 153.4376 351° North 309 356 15,600 -1,740 Descending Aus ATC (RADAR)
04:31AM -27.7577 153.4340 351° North 307 353 15,100 -1,680 Descending Aus ATC (RADAR)
04:32AM -27.7095 153.4252 351° North 300 345 14,200 -1,500 Descending Aus ATC (RADAR)
04:33AM -27.6416 153.4120 350° North 294 338 13,000 -1,440 Descending Aus ATC (RADAR)
04:33AM -27.5951 153.4031 350° North 291 335 12,200 -1,440 Descending Aus ATC (RADAR)
04:34AM -27.5346 153.3907 350° North 292 336 11,100 -1,680 Descending Aus ATC (RADAR)
04:34AM -27.5012 153.3839 350° North 293 337 10,300 -1,800 Descending Aus ATC (RADAR)
04:35AM -27.4544 153.3746 350° North 294 338 9,300 -1,680 Descending Aus ATC (RADAR)
04:36AM -27.3671 153.3573 350° North 294 338 7,500 -1,740 Descending Aus ATC (RADAR)
04:36AM -27.3334 153.3505 350° North 297 342 6,700 -1,680 Descending Aus ATC (RADAR)
04:37AM -27.2865 153.3420 351° North 294 338 5,900 -1,200 Descending Aus ATC (RADAR)
04:38AM -27.2315 153.3090 332° Northwest 269 310 5,100 -1,140 Descending Aus ATC (RADAR)
04:38AM -27.2052 153.2740 310° West 252 290 4,300 -1,320 Descending Aus ATC (RADAR)
04:39AM -27.2222 153.2191 251° West 226 260 3,300 -1,140 Descending Aus ATC (RADAR)
04:40AM -27.2428 153.2096 202° Southwest 199 229 2,900 -900 Descending Aus ATC (RADAR)
04:41AM -27.2862 153.1849 207° Southwest 161 185 2,000 -900 Descending Aus ATC (RADAR)
04:41AM -27.3016 153.1764 206° Southwest 152 175 1,600 -900 Descending Aus ATC (RADAR)
04:42AM -27.3185 153.1668 207° Southwest 138 159 1,200 -660 Descending Aus ATC (RADAR)
04:42AM -27.3382 153.1555 207° Southwest 137 158 900 -720 Descending Aus ATC (RADAR)
04:43AM -27.3578 153.1449 206° Southwest 136 157 400 -900 Descending Aus ATC (RADAR)